createdAt,value
2022-10-23T00:02:37.049Z,76.06
2022-10-23T00:05:40.807Z,75.24
2022-10-23T00:08:42.961Z,77.06
2022-10-23T00:11:47.748Z,72.90
2022-10-23T00:14:49.579Z,74.29
2022-10-23T00:17:51.446Z,78.56
2022-10-23T00:20:53.351Z,74.36
2022-10-23T00:23:55.282Z,74.60
2022-10-23T00:26:57.405Z,77.76
2022-10-23T00:29:59.468Z,75.15
2022-10-23T00:33:01.320Z,72.79
2022-10-23T00:36:07.264Z,78.55
2022-10-23T00:39:09.213Z,74.00
2022-10-23T00:42:12.733Z,73.22
2022-10-23T00:45:19.645Z,76.62
2022-10-23T00:48:21.709Z,75.19
2022-10-23T00:51:23.682Z,78.01
2022-10-23T00:54:25.917Z,78.05
2022-10-23T01:00:46.365Z,80.14
2022-10-23T01:03:48.237Z,76.77
2022-10-23T01:07:04.590Z,77.39
2022-10-23T01:10:10.552Z,77.97
2022-10-23T01:13:17.359Z,77.09
2022-10-23T01:16:24.198Z,79.60
2022-10-23T01:19:44.945Z,75.93
2022-10-23T01:23:05.696Z,71.98
2022-10-23T01:26:16.841Z,76.01
2022-10-23T01:29:21.295Z,77.12
2022-10-23T01:32:23.345Z,78.73
2022-10-23T01:35:29.714Z,76.66
2022-10-23T01:38:36.281Z,77.43
2022-10-23T01:41:40.633Z,74.34
2022-10-23T01:44:51.606Z,74.57
2022-10-23T01:47:53.724Z,70.92
2022-10-23T01:50:55.948Z,72.95
2022-10-23T01:53:58.478Z,73.95
2022-10-23T01:57:00.481Z,73.63
2022-10-23T02:00:05.082Z,74.76
2022-10-23T02:03:06.966Z,71.58
2022-10-23T02:06:08.954Z,75.89
2022-10-23T02:09:10.781Z,77.10
2022-10-23T02:12:13.930Z,74.34
2022-10-23T02:15:29.220Z,72.93
2022-10-23T02:18:49.291Z,77.36
2022-10-23T02:21:51.117Z,77.77
2022-10-23T02:24:56.576Z,72.93
2022-10-23T02:27:58.539Z,71.40
2022-10-23T02:31:00.688Z,71.16
2022-10-23T02:34:03.046Z,74.71
2022-10-23T02:37:04.908Z,75.43
2022-10-23T02:40:07.064Z,71.84
2022-10-23T02:43:11.276Z,71.43
2022-10-23T02:46:25.209Z,73.57
2022-10-23T02:49:45.086Z,76.54
2022-10-23T02:53:10.201Z,72.59
2022-10-23T02:56:14.773Z,72.55
2022-10-23T02:59:19.983Z,74.35
2022-10-23T03:02:23.739Z,75.00
2022-10-23T03:05:32.631Z,76.20
2022-10-23T03:08:41.425Z,76.88
2022-10-23T03:11:43.261Z,76.22
2022-10-23T03:14:45.076Z,75.26
2022-10-23T03:17:46.896Z,74.14
2022-10-23T03:20:48.896Z,73.57
2022-10-23T03:23:50.867Z,75.02
2022-10-23T03:26:52.931Z,74.89
2022-10-23T03:29:54.792Z,74.38
2022-10-23T03:32:56.647Z,74.83
2022-10-23T03:35:58.518Z,74.43
2022-10-23T03:39:00.329Z,78.44
2022-10-23T03:42:02.131Z,78.24
2022-10-23T03:45:04.382Z,78.47
2022-10-23T03:48:06.683Z,76.16
2022-10-23T03:51:08.621Z,78.52
2022-10-23T03:54:10.496Z,79.55
2022-10-23T03:57:12.638Z,79.14
2022-10-23T04:00:14.580Z,76.03
2022-10-23T04:03:16.429Z,73.06
2022-10-23T04:06:18.266Z,71.86
2022-10-23T04:09:20.147Z,78.25
2022-10-23T04:12:22.360Z,74.89
2022-10-23T04:15:24.253Z,73.10
2022-10-23T04:18:26.240Z,70.99
2022-10-23T04:21:28.040Z,72.56
2022-10-23T04:24:30.055Z,77.18
2022-10-23T04:27:31.885Z,80.64
2022-10-23T04:30:34.416Z,73.92
2022-10-23T04:33:36.291Z,74.37
2022-10-23T04:36:38.178Z,74.58
2022-10-23T04:39:40.064Z,78.43
2022-10-23T04:42:42.216Z,78.32
2022-10-23T04:45:44.485Z,74.65
2022-10-23T04:48:46.457Z,74.81
2022-10-23T04:51:48.312Z,74.96
2022-10-23T04:54:50.159Z,77.32
2022-10-23T04:57:52.342Z,77.36
2022-10-23T05:00:54.296Z,79.61
2022-10-23T05:03:56.979Z,78.08
2022-10-23T05:06:58.961Z,80.11
2022-10-23T05:10:00.814Z,78.50
2022-10-23T05:13:02.748Z,74.94
2022-10-23T05:16:04.852Z,77.68
2022-10-23T05:19:07.622Z,77.40
2022-10-23T05:22:09.869Z,78.78
2022-10-23T05:25:12.238Z,78.88
2022-10-23T05:28:14.301Z,75.85
2022-10-23T05:31:16.206Z,72.13
2022-10-23T05:34:18.689Z,72.17
2022-10-23T05:37:20.618Z,72.94
2022-10-23T05:40:22.506Z,72.74
2022-10-23T05:43:26.079Z,76.21
2022-10-23T05:46:29.015Z,79.15
2022-10-23T05:49:30.839Z,79.82
2022-10-23T05:52:32.633Z,73.29
2022-10-23T05:55:34.878Z,71.77
2022-10-23T05:58:36.893Z,71.70
2022-10-23T06:01:38.854Z,70.86
2022-10-23T06:04:41.120Z,70.23
2022-10-23T06:07:43.846Z,69.51
2022-10-23T06:10:45.923Z,67.38
2022-10-23T06:13:50.694Z,66.29
2022-10-23T06:16:52.845Z,63.66
2022-10-23T06:20:00.886Z,62.97
2022-10-23T06:23:02.887Z,62.46
2022-10-23T06:26:05.103Z,61.31
2022-10-23T06:29:07.029Z,60.54
2022-10-23T06:32:09.023Z,59.61
2022-10-23T06:35:10.843Z,59.62
2022-10-23T06:38:13.500Z,63.18
2022-10-23T06:41:20.195Z,60.33
2022-10-23T06:44:22.005Z,58.55
2022-10-23T06:47:23.954Z,51.78
2022-10-23T06:50:26.112Z,56.06
2022-10-23T06:53:28.290Z,56.20
2022-10-23T06:56:30.445Z,52.49
2022-10-23T06:59:32.610Z,58.15
2022-10-23T07:02:34.488Z,55.22
2022-10-23T07:05:36.408Z,56.89
2022-10-23T07:08:38.230Z,49.64
2022-10-23T07:11:40.070Z,49.26
2022-10-23T07:14:41.930Z,52.78
2022-10-23T07:17:43.797Z,56.17
2022-10-23T07:20:49.442Z,55.37
2022-10-23T07:23:51.269Z,59.30
2022-10-23T07:26:53.107Z,59.72
2022-10-23T07:29:54.980Z,59.05
2022-10-23T07:32:56.782Z,60.93
2022-10-23T07:35:58.678Z,62.79
2022-10-23T07:39:00.480Z,67.98
2022-10-23T07:42:02.772Z,70.39
2022-10-23T07:45:05.291Z,70.99
2022-10-23T07:48:07.857Z,71.50
2022-10-23T07:51:12.256Z,72.24
2022-10-23T07:54:14.215Z,72.61
2022-10-23T07:57:16.059Z,71.02
2022-10-23T08:00:17.874Z,71.51
2022-10-23T08:03:20.416Z,72.20
2022-10-23T08:06:22.466Z,65.03
2022-10-23T08:09:24.336Z,69.22
2022-10-23T08:12:26.244Z,72.08
2022-10-23T08:15:28.050Z,72.30
2022-10-23T08:18:29.871Z,72.76
2022-10-23T08:21:31.871Z,70.44
2022-10-23T08:24:33.743Z,70.67
2022-10-23T08:27:35.581Z,69.51
2022-10-23T08:30:37.899Z,70.04
2022-10-23T08:33:40.159Z,66.77
2022-10-23T08:36:42.195Z,66.04
2022-10-23T08:39:44.112Z,66.88
2022-10-23T08:42:47.142Z,66.42
2022-10-23T08:45:50.074Z,68.51
2022-10-23T08:48:52.563Z,67.18
2022-10-23T08:51:55.770Z,67.45
2022-10-23T08:55:14.192Z,65.73
2022-10-23T08:58:23.464Z,66.75
2022-10-23T09:01:28.626Z,63.66
2022-10-23T09:04:30.681Z,69.21
2022-10-23T09:07:35.596Z,67.61
2022-10-23T09:11:06.899Z,63.65
2022-10-23T09:14:08.701Z,61.98
2022-10-23T09:17:17.331Z,62.70
2022-10-23T09:20:20.388Z,66.58
2022-10-23T09:23:22.946Z,67.46
2022-10-23T09:26:24.817Z,66.63
2022-10-23T09:29:28.461Z,63.30
2022-10-23T09:32:33.892Z,64.62
2022-10-23T09:35:35.794Z,66.12
2022-10-23T09:38:37.587Z,62.16
2022-10-23T09:41:39.918Z,62.53
2022-10-23T09:44:47.771Z,64.11
2022-10-23T09:47:49.585Z,68.53
2022-10-23T09:51:17.799Z,65.94
2022-10-23T09:54:21.378Z,67.67
2022-10-23T09:57:30.932Z,63.70
2022-10-23T10:00:32.957Z,63.87
2022-10-23T10:03:34.979Z,64.81
2022-10-23T10:06:37.198Z,65.90
2022-10-23T10:09:39.153Z,62.27
2022-10-23T10:12:41.368Z,61.03
2022-10-23T10:15:50.987Z,59.28
2022-10-23T10:18:56.348Z,60.84
2022-10-23T10:22:16.605Z,56.28
2022-10-23T10:25:21.518Z,54.34
2022-10-23T10:28:45.691Z,56.30
2022-10-23T10:31:56.674Z,54.84
2022-10-23T10:34:58.857Z,59.05
2022-10-23T10:38:09.908Z,55.86
2022-10-23T10:41:38.125Z,55.22
2022-10-23T10:45:04.498Z,59.79
2022-10-23T10:48:14.213Z,61.30
2022-10-23T10:51:36.288Z,63.43
2022-10-23T10:54:59.702Z,64.62
2022-10-23T10:58:03.665Z,65.26
2022-10-23T11:01:11.593Z,61.32
2022-10-23T11:04:14.713Z,58.69
2022-10-23T11:07:19.550Z,61.23
2022-10-23T11:10:21.634Z,61.10
2022-10-23T11:13:27.632Z,64.06
2022-10-23T11:16:30.472Z,58.73
2022-10-23T11:19:55.223Z,59.54
2022-10-23T11:23:09.371Z,53.88
2022-10-23T11:26:29.584Z,57.28
2022-10-23T11:29:51.800Z,59.69
2022-10-23T11:33:08.307Z,60.18
2022-10-23T11:36:17.930Z,58.26
2022-10-23T11:39:19.891Z,60.53
2022-10-23T11:42:32.522Z,56.83
2022-10-23T11:45:38.317Z,57.93
2022-10-23T11:48:41.181Z,58.21
2022-10-23T11:51:42.970Z,64.32
2022-10-23T11:54:44.831Z,66.18
2022-10-23T11:57:59.841Z,59.84
2022-10-23T12:01:03.385Z,63.07
2022-10-23T12:04:14.627Z,62.96
2022-10-23T12:07:17.114Z,64.65
2022-10-23T12:10:20.558Z,58.13
2022-10-23T12:13:34.578Z,61.65
2022-10-23T12:16:36.757Z,63.43
2022-10-23T12:19:43.882Z,61.86
2022-10-23T12:22:56.046Z,61.38
2022-10-23T12:26:16.666Z,63.55
2022-10-23T12:29:37.027Z,60.78
2022-10-23T12:32:44.762Z,61.05
2022-10-23T12:35:49.913Z,55.91
2022-10-23T12:38:51.984Z,59.28
2022-10-23T12:41:53.804Z,57.82
2022-10-23T12:45:02.368Z,61.19
2022-10-23T12:48:04.438Z,59.97
2022-10-23T12:51:06.392Z,55.79
2022-10-23T12:54:18.270Z,58.21
2022-10-23T12:57:28.145Z,60.47
2022-10-23T13:00:31.128Z,60.29
2022-10-23T13:03:33.833Z,61.06
2022-10-23T13:06:36.042Z,56.16
2022-10-23T13:09:46.856Z,59.97
2022-10-23T13:13:05.337Z,56.80
2022-10-23T13:16:33.707Z,48.54
2022-10-23T13:19:35.737Z,45.21
2022-10-23T13:22:39.971Z,46.28
2022-10-23T13:25:41.937Z,50.93
2022-10-23T13:28:44.935Z,53.30
2022-10-23T13:31:46.931Z,58.96
2022-10-23T13:35:03.654Z,57.46
2022-10-23T13:38:12.330Z,56.46
2022-10-23T13:41:20.213Z,57.62
2022-10-23T13:44:22.786Z,58.26
2022-10-23T13:47:24.823Z,58.29
2022-10-23T13:50:26.709Z,58.92
2022-10-23T13:53:30.528Z,63.31
2022-10-23T13:56:32.415Z,60.63
2022-10-23T13:59:34.492Z,58.84
2022-10-23T14:02:36.366Z,58.17
2022-10-23T14:05:38.262Z,58.67
2022-10-23T14:08:40.159Z,59.77
2022-10-23T14:11:42.200Z,59.83
2022-10-23T14:14:44.105Z,60.18
2022-10-23T14:17:45.896Z,61.09
2022-10-23T14:20:48.365Z,63.85
2022-10-23T14:23:50.640Z,64.95
2022-10-23T14:26:52.567Z,62.18
2022-10-23T14:29:54.401Z,63.61
2022-10-23T14:32:56.373Z,61.32
2022-10-23T14:35:58.245Z,59.93
2022-10-23T14:39:00.619Z,60.95
2022-10-23T14:42:02.531Z,61.31
2022-10-23T14:45:04.825Z,62.13
2022-10-23T14:48:06.764Z,62.10
2022-10-23T14:51:15.998Z,64.01
2022-10-23T14:54:18.002Z,67.77
2022-10-23T14:57:21.882Z,66.17
2022-10-23T15:00:24.129Z,67.38
2022-10-23T15:03:26.498Z,62.41
2022-10-23T15:06:28.461Z,62.61
2022-10-23T15:09:32.750Z,67.20
2022-10-23T15:12:37.954Z,64.58
2022-10-23T15:15:39.904Z,62.11
2022-10-23T15:18:41.746Z,63.95
2022-10-23T15:21:43.984Z,64.10
2022-10-23T15:24:46.480Z,64.08
2022-10-23T15:27:48.484Z,64.62
2022-10-23T15:30:50.382Z,61.51
2022-10-23T15:33:52.392Z,62.69
2022-10-23T15:36:54.625Z,62.01
2022-10-23T15:40:01.412Z,63.07
2022-10-23T15:43:05.305Z,60.52
2022-10-23T15:46:07.123Z,60.56
2022-10-23T15:49:09.083Z,61.06
2022-10-23T15:55:12.784Z,60.57
2022-10-23T15:58:14.664Z,62.32
2022-10-23T16:01:16.584Z,60.14
2022-10-23T16:04:18.617Z,59.80
2022-10-23T16:07:20.696Z,60.71
2022-10-23T16:10:23.542Z,60.16
2022-10-23T16:13:25.790Z,60.35
2022-10-23T16:16:28.124Z,60.02
2022-10-23T16:19:30.031Z,61.56
2022-10-23T16:22:32.078Z,62.88
2022-10-23T16:25:37.312Z,65.13
2022-10-23T16:28:39.126Z,63.24
2022-10-23T16:31:41.263Z,62.28
2022-10-23T16:34:43.111Z,59.33
2022-10-23T16:37:45.139Z,60.09
2022-10-23T16:40:51.241Z,60.06
2022-10-23T16:43:53.297Z,61.15
2022-10-23T16:46:55.301Z,60.78
2022-10-23T16:49:57.364Z,61.40
2022-10-23T16:52:59.520Z,61.44
2022-10-23T16:56:03.409Z,61.13
2022-10-23T16:59:05.714Z,61.40
2022-10-23T17:02:09.013Z,61.53
2022-10-23T17:05:11.087Z,61.85
2022-10-23T17:08:12.953Z,62.76
2022-10-23T17:11:20.817Z,62.35
2022-10-23T17:14:25.086Z,63.04
2022-10-23T17:17:26.935Z,62.68
2022-10-23T17:20:28.779Z,61.87
2022-10-23T17:23:30.800Z,62.36
2022-10-23T17:26:33.120Z,62.85
2022-10-23T17:29:35.275Z,65.17
2022-10-23T17:32:37.107Z,64.97
2022-10-23T17:35:39.679Z,65.44
2022-10-23T17:38:41.785Z,65.43
2022-10-23T17:41:44.207Z,64.79
2022-10-23T17:44:46.132Z,62.88
2022-10-23T17:47:48.145Z,62.34
2022-10-23T17:50:50.116Z,63.41
2022-10-23T17:53:52.684Z,63.30
2022-10-23T17:56:54.838Z,66.60
2022-10-23T17:59:56.681Z,64.09
2022-10-23T18:02:58.719Z,63.49
2022-10-23T18:06:08.056Z,63.16
2022-10-23T18:09:10.003Z,65.02
2022-10-23T18:12:11.947Z,61.36
2022-10-23T18:15:13.806Z,64.09
2022-10-23T18:18:15.675Z,62.40
2022-10-23T18:21:18.151Z,61.94
2022-10-23T18:24:19.980Z,65.05
2022-10-23T18:27:21.888Z,62.60
2022-10-23T18:30:23.736Z,61.18
2022-10-23T18:33:26.578Z,62.26
2022-10-23T18:36:29.760Z,63.38
2022-10-23T18:39:31.819Z,65.02
2022-10-23T18:42:35.077Z,65.28
2022-10-23T18:45:37.309Z,65.39
2022-10-23T18:48:39.255Z,66.41
2022-10-23T18:51:41.158Z,65.70
2022-10-23T18:54:43.167Z,69.05
2022-10-23T18:57:45.458Z,67.90
2022-10-23T19:00:47.663Z,66.20
2022-10-23T19:03:50.260Z,66.27
2022-10-23T19:06:52.188Z,65.66
2022-10-23T19:09:54.927Z,64.80
2022-10-23T19:12:56.766Z,66.98
2022-10-23T19:15:59.423Z,68.58
2022-10-23T19:19:03.408Z,66.33
2022-10-23T19:22:07.379Z,66.25
2022-10-23T19:25:15.286Z,66.56
2022-10-23T19:28:17.321Z,69.72
2022-10-23T19:31:19.330Z,69.07
2022-10-23T19:34:22.664Z,68.75
2022-10-23T19:37:24.753Z,68.80
2022-10-23T19:40:26.822Z,69.87
2022-10-23T19:43:29.034Z,66.79
2022-10-23T19:46:30.930Z,66.45
2022-10-23T19:49:32.835Z,67.23
2022-10-23T19:52:34.845Z,68.28
2022-10-23T19:55:36.774Z,65.66
2022-10-23T19:58:38.921Z,63.74
2022-10-23T20:01:43.856Z,63.68
2022-10-23T20:04:48.352Z,65.03
2022-10-23T20:07:51.417Z,63.02
2022-10-23T20:10:53.394Z,62.93
2022-10-23T20:13:55.592Z,62.23
2022-10-23T20:16:57.449Z,64.25
2022-10-23T20:19:59.265Z,63.68
2022-10-23T20:23:01.201Z,63.35
2022-10-23T20:26:04.206Z,61.52
2022-10-23T20:29:06.046Z,62.84
2022-10-23T20:32:08.234Z,62.22
2022-10-23T20:35:10.031Z,62.28
2022-10-23T20:38:11.906Z,62.16
2022-10-23T20:41:13.853Z,63.99
2022-10-23T20:47:18.866Z,64.21
2022-10-23T20:50:21.020Z,62.97
2022-10-23T20:53:22.997Z,64.71
2022-10-23T20:56:31.064Z,64.42
2022-10-23T20:59:34.231Z,64.39
2022-10-23T21:02:36.127Z,64.47
2022-10-23T21:05:38.297Z,63.82
2022-10-23T21:08:40.432Z,65.19
2022-10-23T21:11:42.329Z,64.53
2022-10-23T21:14:44.161Z,65.11
2022-10-23T21:17:49.134Z,65.68
2022-10-23T21:20:51.573Z,66.72
2022-10-23T21:23:54.582Z,64.11
2022-10-23T21:26:56.420Z,67.06
2022-10-23T21:29:58.370Z,70.51
2022-10-23T21:33:00.178Z,66.29
2022-10-23T21:36:13.410Z,64.22
2022-10-23T21:39:16.072Z,63.95
2022-10-23T21:42:19.301Z,71.05
2022-10-23T21:45:21.351Z,70.44
2022-10-23T21:48:23.189Z,66.51
2022-10-23T21:51:29.579Z,65.67
2022-10-23T21:54:31.405Z,63.20
2022-10-23T21:57:33.486Z,64.60
2022-10-23T22:00:35.341Z,66.02
2022-10-23T22:03:37.291Z,65.17
2022-10-23T22:06:39.198Z,63.16
2022-10-23T22:09:41.177Z,63.24
2022-10-23T22:12:43.061Z,63.83
2022-10-23T22:18:51.590Z,63.33
2022-10-23T22:21:53.409Z,64.53
2022-10-23T22:24:55.345Z,63.62
2022-10-23T22:27:57.280Z,63.19
2022-10-23T22:30:59.832Z,63.66
2022-10-23T22:34:13.095Z,64.42
2022-10-23T22:37:24.002Z,65.45
2022-10-23T22:40:25.830Z,65.86
2022-10-23T22:43:27.982Z,66.24
2022-10-23T22:46:29.999Z,66.35
2022-10-23T22:49:31.955Z,66.34
2022-10-23T22:52:33.793Z,65.90
2022-10-23T22:55:36.834Z,65.35
2022-10-23T22:58:38.742Z,66.94
2022-10-23T23:01:41.882Z,66.33
2022-10-23T23:04:43.828Z,65.45
2022-10-23T23:07:45.971Z,65.92
2022-10-23T23:10:55.034Z,66.16
2022-10-23T23:13:56.961Z,66.86
2022-10-23T23:16:59.147Z,69.38
2022-10-23T23:20:00.955Z,70.95
2022-10-23T23:23:03.045Z,67.80
2022-10-23T23:26:05.817Z,67.67
2022-10-23T23:29:07.693Z,66.50
2022-10-23T23:32:10.321Z,67.34
2022-10-23T23:35:12.166Z,67.53
2022-10-23T23:38:14.016Z,66.71
2022-10-23T23:41:16.745Z,68.12
2022-10-23T23:44:18.656Z,67.13
2022-10-23T23:47:20.564Z,66.25
2022-10-23T23:50:22.633Z,66.52
2022-10-23T23:53:24.537Z,68.54
2022-10-23T23:56:26.375Z,68.70
2022-10-23T23:59:28.300Z,67.92
